Gallatin Field
KBZN : now visible

Airfield :











YOU CAN JOIN US ON...

 
LOGIN :

Register | Disclaimer

   EN    FR    IT 

 









Legend :    VFR   Marginal VFR   IFR   Intensive IFR   Very Intensive IFR
Visi :
Ceiling :
>= 8 km
>= 3000ft
5 to 8 km
1000 to 3000 ft
1500m to 5 km
500 to 1000 ft
800 to 1500m
200 to 500 ft
< 800m
< 200 ft
Symbols :   Thunderstorms  Fog  Heavy snow  Heavy precipitations  Wind > 20 kt







- Airport Elevation : 4473 ft
- IATA code : BZN


KBZN - Gallatin Field

CURRENT METAR :
  • 200756Z AUTO 08007KT 040V110 10SM FEW050 SCT060 OVC100 04/M02 A2984 RMK AO2 SLP107 T00391022

EXPIRED METARs :
  • 200656Z 09009G16KT 10SM BKN033 OVC046 04/M02 A2987 RMK AO2 SLP118 T00391017 400940000

TAF KBZN
Valid from the 20 at 08:00 until the 21 at 12:00 UTC


200815Z 2008/2112 07011KT P6SM SCT050 BKN100
FM201400 VRB06KT P6SM SCT030 BKN060
PROB30 2017/2021 -SHRA BKN030
FM202100 09010G18KT P6SM FEW025 BKN050
FM210200 08007KT P6SM SCT020 BKN040
KZLC FIR / North America



MET'MAP, your aeronautical weather chart ! - Copyright ORBIFLY December 2007 - Disclaimer

ORBIFLY MET'MAP TEAM :

Programming & Development : Alexandra Zaïnal
Concept & Development : Baudouin d'Aumeries
Co-Development & Prog : Marc-Olivier Méhu
Technical & hardware support : Manuel Goepfert

Contact : metmap@orbifly.com




SOURCES & CREDITS :

   NOAA       Earth
Advisory